createdAt,value
2023-04-11T00:00:57.127Z,81.70
2023-04-11T00:03:24.239Z,81.70
2023-04-11T00:05:51.267Z,81.70
2023-04-11T00:08:18.187Z,81.80
2023-04-11T00:10:45.761Z,81.70
2023-04-11T00:13:12.967Z,81.90
2023-04-11T00:15:39.930Z,81.90
2023-04-11T00:18:07.437Z,82.00
2023-04-11T00:20:34.577Z,81.90
2023-04-11T00:23:01.652Z,81.80
2023-04-11T00:25:30.195Z,81.80
2023-04-11T00:27:57.285Z,81.70
2023-04-11T00:30:24.266Z,81.70
2023-04-11T00:32:51.389Z,81.80
2023-04-11T00:35:18.380Z,81.70
2023-04-11T00:37:45.620Z,81.70
2023-04-11T00:40:14.387Z,81.70
2023-04-11T00:42:41.263Z,81.70
2023-04-11T00:45:08.903Z,81.50
2023-04-11T00:47:36.115Z,81.60
2023-04-11T00:50:03.656Z,81.60
2023-04-11T00:52:30.727Z,81.70
2023-04-11T00:54:58.406Z,81.90
2023-04-11T00:57:26.151Z,82.00
2023-04-11T00:59:53.359Z,81.90
2023-04-11T01:02:21.511Z,82.20
2023-04-11T01:04:48.639Z,81.90
2023-04-11T01:07:17.463Z,81.90
2023-04-11T01:09:45.652Z,81.80
2023-04-11T01:12:14.448Z,81.70
2023-04-11T01:14:41.761Z,81.60
2023-04-11T01:17:12.749Z,81.70
2023-04-11T01:19:39.850Z,81.50
2023-04-11T01:22:07.832Z,81.50
2023-04-11T01:24:34.929Z,81.50
2023-04-11T01:27:03.243Z,81.60
2023-04-11T01:29:30.386Z,81.40
2023-04-11T01:31:57.240Z,81.30
2023-04-11T01:34:28.407Z,81.30
2023-04-11T01:36:55.743Z,81.20
2023-04-11T01:39:22.926Z,81.20
2023-04-11T01:41:50.861Z,81.10
2023-04-11T01:44:19.233Z,81.00
2023-04-11T01:46:47.171Z,81.10
2023-04-11T01:49:19.022Z,81.10
2023-04-11T01:51:46.090Z,81.00
2023-04-11T01:54:13.088Z,80.90
2023-04-11T01:56:40.015Z,80.90
2023-04-11T01:59:06.862Z,80.80
2023-04-11T02:01:41.507Z,80.90
2023-04-11T02:04:08.660Z,80.90
2023-04-11T02:06:35.819Z,80.90
2023-04-11T02:09:05.402Z,80.90
2023-04-11T02:11:32.370Z,80.90
2023-04-11T02:14:02.382Z,80.70
2023-04-11T02:16:30.208Z,80.80
2023-04-11T02:18:58.102Z,80.70
2023-04-11T02:21:25.723Z,80.90
2023-04-11T02:23:52.560Z,80.70
2023-04-11T02:26:19.470Z,80.70
2023-04-11T02:28:46.463Z,80.70
2023-04-11T02:31:13.429Z,80.80
2023-04-11T02:33:40.413Z,80.80
2023-04-11T02:36:07.538Z,80.80
2023-04-11T02:38:34.408Z,81.00
2023-04-11T02:41:01.327Z,80.80
2023-04-11T02:43:28.207Z,80.90
2023-04-11T02:46:05.586Z,80.90
2023-04-11T02:48:38.938Z,80.90
2023-04-11T02:51:06.188Z,81.10
2023-04-11T02:53:33.047Z,81.00
2023-04-11T02:55:59.942Z,80.90
2023-04-11T02:58:28.896Z,81.00
2023-04-11T03:00:56.297Z,81.00
2023-04-11T03:03:23.276Z,81.20
2023-04-11T03:05:50.275Z,80.90
2023-04-11T03:08:17.259Z,80.90
2023-04-11T03:10:44.240Z,80.90
2023-04-11T03:13:11.143Z,80.90
2023-04-11T03:15:38.048Z,80.90
2023-04-11T03:18:04.985Z,80.80
2023-04-11T03:20:31.855Z,80.80
2023-04-11T03:22:58.738Z,80.80
2023-04-11T03:25:25.665Z,81.00
2023-04-11T03:27:52.505Z,81.10
2023-04-11T03:30:19.412Z,80.90
2023-04-11T03:32:46.505Z,81.00
2023-04-11T03:35:14.948Z,80.90
2023-04-11T03:37:41.855Z,80.90
2023-04-11T03:40:10.007Z,80.90
2023-04-11T03:42:36.920Z,80.80
2023-04-11T03:45:06.598Z,80.80
2023-04-11T03:47:33.917Z,80.90
2023-04-11T03:50:01.615Z,81.00
2023-04-11T03:52:28.453Z,80.90
2023-04-11T03:54:55.420Z,80.90
2023-04-11T03:57:22.332Z,80.90
2023-04-11T03:59:49.259Z,81.00
2023-04-11T04:02:16.311Z,80.90
2023-04-11T04:04:47.102Z,80.90
2023-04-11T04:07:14.537Z,80.90
2023-04-11T04:09:41.571Z,80.90
2023-04-11T04:12:08.432Z,80.90
2023-04-11T04:14:35.370Z,80.90
2023-04-11T04:17:02.754Z,80.90
2023-04-11T04:19:29.657Z,80.90
2023-04-11T04:21:58.338Z,80.90
2023-04-11T04:24:29.645Z,81.00
2023-04-11T04:27:01.037Z,80.80
2023-04-11T04:29:38.089Z,80.80
2023-04-11T04:32:10.955Z,81.00
2023-04-11T04:34:46.844Z,81.00
2023-04-11T04:37:22.998Z,81.00
2023-04-11T04:39:54.498Z,81.10
2023-04-11T04:42:26.548Z,81.00
2023-04-11T04:44:55.183Z,81.20
2023-04-11T04:47:24.350Z,81.30
2023-04-11T04:50:00.728Z,81.30
2023-04-11T04:52:29.261Z,81.40
2023-04-11T04:55:01.319Z,81.40
2023-04-11T04:57:29.648Z,81.50
2023-04-11T04:59:58.058Z,81.50
2023-04-11T05:02:28.407Z,81.50
2023-04-11T05:04:55.712Z,81.50
2023-04-11T05:07:22.876Z,81.60
2023-04-11T05:09:49.835Z,81.60
2023-04-11T05:12:21.487Z,81.60
2023-04-11T05:14:48.341Z,81.60
2023-04-11T05:17:16.360Z,81.50
2023-04-11T05:19:43.234Z,81.60
2023-04-11T05:22:10.080Z,81.90
2023-04-11T05:24:37.238Z,81.90
2023-04-11T05:27:04.394Z,81.90
2023-04-11T05:29:31.356Z,82.00
2023-04-11T05:31:58.176Z,82.10
2023-04-11T05:34:25.137Z,82.10
2023-04-11T05:36:52.088Z,82.20
2023-04-11T05:39:18.933Z,82.20
2023-04-11T05:41:45.988Z,82.10
2023-04-11T05:44:12.842Z,82.20
2023-04-11T05:46:39.764Z,82.20
2023-04-11T05:49:06.633Z,82.10
2023-04-11T05:51:35.649Z,82.10
2023-04-11T05:54:02.486Z,82.20
2023-04-11T05:56:29.406Z,82.20
2023-04-11T05:58:56.298Z,82.30
2023-04-11T06:01:23.983Z,82.30
2023-04-11T06:03:51.041Z,82.40
2023-04-11T06:06:18.232Z,82.30
2023-04-11T06:08:45.297Z,82.50
2023-04-11T06:11:12.165Z,82.40
2023-04-11T06:13:39.061Z,82.30
2023-04-11T06:16:06.924Z,82.30
2023-04-11T06:18:33.871Z,82.40
2023-04-11T06:21:01.210Z,82.50
2023-04-11T06:23:28.128Z,82.60
2023-04-11T06:25:55.120Z,82.60
2023-04-11T06:28:22.001Z,82.50
2023-04-11T06:30:48.888Z,82.60
2023-04-11T06:33:15.909Z,82.60
2023-04-11T06:35:42.805Z,82.90
2023-04-11T06:38:09.729Z,83.10
2023-04-11T06:40:37.835Z,83.20
2023-04-11T06:43:04.799Z,83.30
2023-04-11T06:45:31.673Z,83.40
2023-04-11T06:47:58.748Z,83.40
2023-04-11T06:50:25.678Z,83.70
2023-04-11T06:52:52.593Z,83.70
2023-04-11T06:55:19.640Z,83.70
2023-04-11T06:57:46.624Z,84.00
2023-04-11T07:00:13.902Z,83.90
2023-04-11T07:02:41.161Z,83.80
2023-04-11T07:05:12.217Z,83.70
2023-04-11T07:07:39.746Z,83.80
2023-04-11T07:10:07.268Z,83.80
2023-04-11T07:12:34.349Z,83.70
2023-04-11T07:15:02.687Z,83.70
2023-04-11T07:17:29.635Z,83.70
2023-04-11T07:19:57.612Z,83.70
2023-04-11T07:22:24.486Z,83.70
2023-04-11T07:24:55.401Z,83.60
2023-04-11T07:27:23.534Z,83.80
2023-04-11T07:29:50.794Z,83.80
2023-04-11T07:32:17.762Z,83.80
2023-04-11T07:34:44.642Z,83.80
2023-04-11T07:37:12.727Z,84.40
2023-04-11T07:39:40.849Z,83.60
2023-04-11T07:42:08.203Z,81.60
2023-04-11T07:44:35.098Z,80.90
2023-04-11T07:47:02.407Z,80.60
2023-04-11T07:49:29.467Z,80.40
2023-04-11T07:51:56.556Z,75.70
2023-04-11T07:54:25.245Z,75.30
2023-04-11T07:56:52.320Z,78.50
2023-04-11T07:59:19.311Z,78.80
2023-04-11T08:01:46.393Z,77.40
2023-04-11T08:04:13.903Z,77.70
2023-04-11T08:06:41.538Z,76.80
2023-04-11T08:09:08.566Z,77.60
2023-04-11T08:11:35.594Z,77.30
2023-04-11T08:14:02.499Z,76.70
2023-04-11T08:16:29.641Z,76.20
2023-04-11T08:18:57.392Z,77.30
2023-04-11T08:21:25.327Z,77.30
2023-04-11T08:23:52.280Z,77.40
2023-04-11T08:26:20.259Z,77.30
2023-04-11T08:28:47.176Z,77.10
2023-04-11T08:31:14.361Z,77.40
2023-04-11T08:33:41.658Z,77.40
2023-04-11T08:36:10.626Z,77.50
2023-04-11T08:38:39.428Z,77.50
2023-04-11T08:41:06.848Z,77.40
2023-04-11T08:43:34.749Z,77.30
2023-04-11T08:46:04.208Z,77.30
2023-04-11T08:48:32.513Z,77.30
2023-04-11T08:50:59.877Z,78.00
2023-04-11T08:53:28.212Z,77.20
2023-04-11T08:55:55.160Z,77.30
2023-04-11T08:58:22.801Z,77.30
2023-04-11T09:00:50.965Z,77.20
2023-04-11T09:03:18.423Z,77.70
2023-04-11T09:05:46.905Z,77.10
2023-04-11T09:08:15.992Z,77.00
2023-04-11T09:10:48.792Z,77.00
2023-04-11T09:13:23.029Z,76.80
2023-04-11T09:16:05.441Z,76.70
2023-04-11T09:18:44.379Z,76.40
2023-04-11T09:21:13.983Z,76.40
2023-04-11T09:23:41.531Z,76.10
2023-04-11T09:26:12.261Z,75.80
2023-04-11T09:28:44.266Z,75.20
2023-04-11T09:31:13.463Z,75.20
2023-04-11T09:33:53.457Z,75.00
2023-04-11T09:36:23.329Z,75.20
2023-04-11T09:38:51.829Z,75.00
2023-04-11T09:41:36.027Z,75.00
2023-04-11T09:44:06.102Z,74.90
2023-04-11T09:46:33.082Z,74.70
2023-04-11T09:49:02.102Z,74.80
2023-04-11T09:51:36.662Z,74.80
2023-04-11T09:54:05.455Z,74.90
2023-04-11T09:56:34.865Z,74.70
2023-04-11T09:59:03.366Z,74.60
2023-04-11T10:01:30.378Z,74.70
2023-04-11T10:03:58.539Z,74.60
2023-04-11T10:06:42.025Z,74.70
2023-04-11T10:09:14.091Z,74.60
2023-04-11T10:11:43.410Z,74.90
2023-04-11T10:14:38.689Z,75.00
2023-04-11T10:17:21.426Z,75.50
2023-04-11T10:19:51.644Z,75.70
2023-04-11T10:22:50.741Z,75.70
2023-04-11T10:25:19.218Z,75.70
2023-04-11T10:27:50.438Z,75.90
2023-04-11T10:30:17.581Z,75.90
2023-04-11T10:33:10.378Z,76.00
2023-04-11T10:36:03.165Z,76.20
2023-04-11T10:38:46.225Z,76.30
2023-04-11T10:41:33.636Z,76.20
2023-04-11T10:44:34.384Z,76.40
2023-04-11T10:47:01.631Z,75.60
2023-04-11T10:49:39.858Z,75.30
2023-04-11T10:52:37.818Z,75.10
2023-04-11T10:55:17.794Z,75.00
2023-04-11T10:58:03.240Z,74.80
2023-04-11T11:01:21.161Z,74.80
2023-04-11T11:04:00.116Z,74.60
2023-04-11T11:06:29.258Z,74.60
2023-04-11T11:08:56.242Z,74.50
2023-04-11T11:11:23.278Z,74.60
2023-04-11T11:13:52.746Z,75.10
2023-04-11T11:16:25.156Z,74.60
2023-04-11T11:18:59.127Z,74.60
2023-04-11T11:21:28.811Z,74.60
2023-04-11T11:24:03.642Z,74.70
2023-04-11T11:26:37.364Z,74.70
2023-04-11T11:29:06.039Z,74.80
2023-04-11T11:31:47.738Z,74.80
2023-04-11T11:34:28.926Z,74.90
2023-04-11T11:36:59.192Z,74.90
2023-04-11T11:39:26.976Z,74.90
2023-04-11T11:41:54.188Z,74.90
2023-04-11T11:44:28.999Z,75.00
2023-04-11T11:47:12.354Z,75.10
2023-04-11T11:49:49.702Z,75.10
2023-04-11T11:52:43.649Z,75.20
2023-04-11T11:55:20.001Z,75.30
2023-04-11T11:57:50.991Z,75.50
2023-04-11T12:00:26.122Z,75.40
2023-04-11T12:02:54.422Z,75.40
2023-04-11T12:05:24.598Z,75.50
2023-04-11T12:07:58.742Z,75.50
2023-04-11T12:10:36.644Z,75.50
2023-04-11T12:13:16.103Z,75.50
2023-04-11T12:15:54.154Z,75.60
2023-04-11T12:18:22.595Z,75.60
2023-04-11T12:20:50.406Z,75.70
2023-04-11T12:23:18.227Z,75.80
2023-04-11T12:25:49.223Z,75.90
2023-04-11T12:28:16.545Z,75.90
2023-04-11T12:30:43.446Z,75.80
2023-04-11T12:33:10.340Z,75.70
2023-04-11T12:35:39.584Z,75.60
2023-04-11T12:38:08.094Z,75.60
2023-04-11T12:40:35.133Z,75.60
2023-04-11T12:43:02.038Z,75.50
2023-04-11T12:45:29.163Z,75.40
2023-04-11T12:47:56.126Z,75.40
2023-04-11T12:50:24.111Z,75.30
2023-04-11T12:52:51.643Z,75.40
2023-04-11T12:55:20.319Z,75.30
2023-04-11T12:57:47.356Z,75.40
2023-04-11T13:00:14.963Z,75.20
2023-04-11T13:02:44.969Z,75.20
2023-04-11T13:05:18.829Z,75.20
2023-04-11T13:07:50.821Z,75.20
2023-04-11T13:10:17.720Z,75.10
2023-04-11T13:12:45.940Z,74.80
2023-04-11T13:15:14.844Z,74.70
2023-04-11T13:17:42.251Z,75.00
2023-04-11T13:20:11.061Z,75.20
2023-04-11T13:22:42.325Z,75.30
2023-04-11T13:25:10.430Z,75.40
2023-04-11T13:27:39.330Z,75.60
2023-04-11T13:30:10.410Z,75.60
2023-04-11T13:32:37.549Z,75.70
2023-04-11T13:35:05.981Z,75.70
2023-04-11T13:37:33.097Z,75.80
2023-04-11T13:40:00.243Z,75.90
2023-04-11T13:42:27.548Z,75.90
2023-04-11T13:44:56.755Z,76.00
2023-04-11T13:47:24.908Z,76.00
2023-04-11T13:49:51.997Z,75.90
2023-04-11T13:52:18.898Z,76.00
2023-04-11T13:54:46.063Z,76.00
2023-04-11T13:57:12.936Z,76.10
2023-04-11T13:59:40.180Z,76.10
2023-04-11T14:02:07.257Z,76.10
2023-04-11T14:04:34.330Z,76.10
2023-04-11T14:07:01.861Z,76.20
2023-04-11T14:09:28.853Z,76.30
2023-04-11T14:11:56.998Z,76.20
2023-04-11T14:14:23.883Z,76.20
2023-04-11T14:16:51.471Z,76.30
2023-04-11T14:19:18.617Z,76.30
2023-04-11T14:21:45.786Z,76.30
2023-04-11T14:24:12.808Z,76.30
2023-04-11T14:26:39.828Z,76.40
2023-04-11T14:29:07.011Z,76.40
2023-04-11T14:31:34.066Z,76.40
2023-04-11T14:34:02.311Z,76.40
2023-04-11T14:36:29.753Z,76.40
2023-04-11T14:38:56.880Z,76.40
2023-04-11T14:41:24.017Z,76.40
2023-04-11T14:43:52.481Z,76.40
2023-04-11T14:46:19.474Z,76.40
2023-04-11T14:48:47.496Z,76.50
2023-04-11T14:51:14.367Z,76.50
2023-04-11T14:53:41.267Z,76.50
2023-04-11T14:56:08.786Z,76.40
2023-04-11T14:58:35.673Z,76.50
2023-04-11T15:01:03.368Z,76.50
2023-04-11T15:03:30.568Z,77.20
2023-04-11T15:05:57.540Z,76.60
2023-04-11T15:08:24.641Z,76.70
2023-04-11T15:10:54.649Z,76.60
2023-04-11T15:13:22.930Z,76.60
2023-04-11T15:15:50.130Z,76.60
2023-04-11T15:18:25.105Z,76.70
2023-04-11T15:20:52.725Z,76.60
2023-04-11T15:23:20.843Z,76.70
2023-04-11T15:25:54.350Z,76.70
2023-04-11T15:28:22.280Z,76.70
2023-04-11T15:30:53.077Z,76.60
2023-04-11T15:33:24.332Z,76.60
2023-04-11T15:35:53.833Z,77.00
2023-04-11T15:38:21.341Z,76.80
2023-04-11T15:40:52.519Z,76.70
2023-04-11T15:43:19.927Z,76.70
2023-04-11T15:45:47.888Z,76.70
2023-04-11T15:48:14.982Z,76.70
2023-04-11T15:50:42.821Z,76.80
2023-04-11T15:53:10.280Z,76.80
2023-04-11T15:55:41.981Z,76.80
2023-04-11T15:58:09.604Z,76.80
2023-04-11T16:00:37.754Z,76.80
2023-04-11T16:03:08.476Z,76.80
2023-04-11T16:05:40.833Z,76.80
2023-04-11T16:08:09.363Z,76.80
2023-04-11T16:10:36.241Z,76.00
2023-04-11T16:13:03.265Z,74.90
2023-04-11T16:15:30.588Z,74.30
2023-04-11T16:17:57.712Z,74.00
2023-04-11T16:20:25.907Z,73.80
2023-04-11T16:22:53.011Z,73.60
2023-04-11T16:25:21.580Z,73.40
2023-04-11T16:27:49.893Z,72.10
2023-04-11T16:30:18.028Z,66.80
2023-04-11T16:32:45.357Z,70.20
2023-04-11T16:35:14.788Z,71.50
2023-04-11T16:37:41.714Z,71.60
2023-04-11T16:40:11.833Z,70.90
2023-04-11T16:42:40.042Z,70.50
2023-04-11T16:45:12.591Z,69.90
2023-04-11T16:47:39.679Z,69.90
2023-04-11T16:50:07.291Z,69.70
2023-04-11T16:52:34.274Z,69.50
2023-04-11T16:55:01.696Z,69.80
2023-04-11T16:57:34.282Z,69.70
2023-04-11T17:00:12.033Z,69.20
2023-04-11T17:02:39.165Z,69.90
2023-04-11T17:05:06.956Z,70.00
2023-04-11T17:07:34.547Z,70.10
2023-04-11T17:10:02.779Z,70.80
2023-04-11T17:12:30.530Z,71.40
2023-04-11T17:15:00.010Z,71.00
2023-04-11T17:17:26.993Z,70.70
2023-04-11T17:19:54.212Z,70.50
2023-04-11T17:22:22.233Z,70.50
2023-04-11T17:24:50.214Z,70.80
2023-04-11T17:27:17.240Z,71.50
2023-04-11T17:29:44.121Z,71.00
2023-04-11T17:32:12.029Z,71.30
2023-04-11T17:34:39.051Z,71.40
2023-04-11T17:37:06.640Z,71.50
2023-04-11T17:39:34.024Z,71.50
2023-04-11T17:42:05.208Z,71.60
2023-04-11T17:44:32.059Z,71.70
2023-04-11T17:47:00.666Z,71.80
2023-04-11T17:49:27.717Z,72.00
2023-04-11T17:51:59.245Z,72.10
2023-04-11T17:54:29.771Z,72.20
2023-04-11T17:56:56.759Z,72.30
2023-04-11T17:59:26.393Z,72.60
2023-04-11T18:01:56.004Z,72.70
2023-04-11T18:04:23.904Z,72.80
2023-04-11T18:06:52.331Z,73.20
2023-04-11T18:09:19.446Z,73.20
2023-04-11T18:11:46.514Z,73.00
2023-04-11T18:14:13.413Z,73.50
2023-04-11T18:16:41.109Z,72.80
2023-04-11T18:19:08.457Z,72.60
2023-04-11T18:21:35.332Z,72.60
2023-04-11T18:24:02.199Z,72.50
2023-04-11T18:26:29.341Z,72.60
2023-04-11T18:28:56.327Z,72.60
2023-04-11T18:31:23.354Z,72.50
2023-04-11T18:33:50.290Z,72.50
2023-04-11T18:36:17.413Z,72.40
2023-04-11T18:38:44.715Z,72.50
2023-04-11T18:41:11.644Z,72.50
2023-04-11T18:43:41.465Z,72.60
2023-04-11T18:46:09.760Z,72.50
2023-04-11T18:48:36.836Z,72.60
2023-04-11T18:51:04.970Z,72.60
2023-04-11T18:53:32.528Z,72.60
2023-04-11T18:56:03.132Z,72.60
2023-04-11T18:58:34.260Z,72.60
2023-04-11T19:01:13.902Z,72.60
2023-04-11T19:03:43.543Z,72.70
2023-04-11T19:06:10.646Z,73.30
2023-04-11T19:08:40.365Z,73.90
2023-04-11T19:11:07.433Z,71.40
2023-04-11T19:13:34.317Z,68.90
2023-04-11T19:16:01.917Z,67.70
2023-04-11T19:18:28.914Z,67.70
2023-04-11T19:20:56.303Z,67.80
2023-04-11T19:23:23.327Z,68.30
2023-04-11T19:26:00.623Z,69.80
2023-04-11T19:28:27.725Z,70.50
2023-04-11T19:30:54.628Z,71.30
2023-04-11T19:33:24.972Z,71.40
2023-04-11T19:35:53.110Z,72.00
2023-04-11T19:38:22.159Z,72.10
2023-04-11T19:40:50.461Z,72.30
2023-04-11T19:43:17.379Z,72.90
2023-04-11T19:45:46.004Z,73.00
2023-04-11T19:48:13.242Z,73.10
2023-04-11T19:50:40.476Z,73.00
2023-04-11T19:53:07.397Z,73.30
2023-04-11T19:55:34.265Z,73.40
2023-04-11T19:58:01.772Z,73.50
2023-04-11T20:00:32.785Z,73.50
2023-04-11T20:03:02.589Z,73.80
2023-04-11T20:05:32.376Z,73.80
2023-04-11T20:07:59.421Z,74.20
2023-04-11T20:10:28.389Z,74.10
2023-04-11T20:12:55.682Z,74.30
2023-04-11T20:15:23.285Z,74.40
2023-04-11T20:17:50.194Z,74.40
2023-04-11T20:20:17.402Z,72.20
2023-04-11T20:22:44.965Z,70.30
2023-04-11T20:25:12.503Z,70.80
2023-04-11T20:27:41.138Z,71.60
2023-04-11T20:30:12.630Z,72.70
2023-04-11T20:32:40.525Z,73.00
2023-04-11T20:35:14.556Z,73.40
2023-04-11T20:37:44.971Z,73.60
2023-04-11T20:40:17.116Z,73.80
2023-04-11T20:42:47.644Z,74.00
2023-04-11T20:45:18.224Z,74.00
2023-04-11T20:47:50.129Z,74.20
2023-04-11T20:50:17.857Z,74.30
2023-04-11T20:52:46.666Z,74.40
2023-04-11T20:55:14.634Z,74.50
2023-04-11T20:57:41.628Z,74.50
2023-04-11T21:00:14.384Z,74.60
2023-04-11T21:02:44.505Z,74.70
2023-04-11T21:05:12.767Z,74.80
2023-04-11T21:07:40.810Z,74.70
2023-04-11T21:10:08.409Z,74.90
2023-04-11T21:12:35.874Z,74.90
2023-04-11T21:15:04.478Z,74.90
2023-04-11T21:17:35.533Z,74.90
2023-04-11T21:20:18.354Z,74.60
2023-04-11T21:22:53.182Z,74.40
2023-04-11T21:25:20.529Z,75.10
2023-04-11T21:27:47.866Z,75.50
2023-04-11T21:30:14.845Z,75.60
2023-04-11T21:32:42.161Z,75.80
2023-04-11T21:35:11.258Z,76.60
2023-04-11T21:37:38.712Z,76.80
2023-04-11T21:40:06.227Z,76.50
2023-04-11T21:42:33.202Z,76.80
2023-04-11T21:45:04.267Z,77.00
2023-04-11T21:47:31.153Z,77.30
2023-04-11T21:49:58.084Z,77.20
2023-04-11T21:52:27.057Z,77.40
2023-04-11T21:54:53.891Z,77.30
2023-04-11T21:57:21.035Z,77.70
2023-04-11T21:59:47.909Z,77.90
2023-04-11T22:02:15.051Z,77.60
2023-04-11T22:05:00.944Z,77.80
2023-04-11T22:07:33.100Z,78.30
2023-04-11T22:10:09.329Z,78.30
2023-04-11T22:12:36.899Z,78.40
2023-04-11T22:15:05.384Z,78.50
2023-04-11T22:17:33.586Z,78.60
2023-04-11T22:20:00.833Z,78.80
2023-04-11T22:22:30.794Z,78.80
2023-04-11T22:24:58.054Z,79.00
2023-04-11T22:27:27.969Z,79.00
2023-04-11T22:30:02.277Z,78.90
2023-04-11T22:32:30.318Z,78.90
2023-04-11T22:34:57.355Z,79.00
2023-04-11T22:37:25.202Z,79.10
2023-04-11T22:39:52.099Z,78.90
2023-04-11T22:42:19.379Z,80.00
2023-04-11T22:44:46.832Z,79.30
2023-04-11T22:47:16.283Z,79.40
2023-04-11T22:49:45.004Z,79.30
2023-04-11T22:52:15.087Z,79.30
2023-04-11T22:54:43.083Z,79.30
2023-04-11T22:57:10.574Z,79.40
2023-04-11T22:59:37.442Z,79.30
2023-04-11T23:02:04.568Z,79.40
2023-04-11T23:04:32.330Z,79.50
2023-04-11T23:06:59.666Z,79.50
2023-04-11T23:09:28.539Z,79.60
2023-04-11T23:11:55.488Z,79.60
2023-04-11T23:14:22.580Z,79.70
2023-04-11T23:16:50.843Z,79.90
2023-04-11T23:19:18.972Z,79.90
2023-04-11T23:21:47.480Z,80.00
2023-04-11T23:24:14.733Z,79.80
2023-04-11T23:26:43.191Z,79.90
2023-04-11T23:29:10.862Z,79.90
2023-04-11T23:31:37.784Z,79.80
2023-04-11T23:34:04.810Z,80.00
2023-04-11T23:36:32.829Z,80.00
2023-04-11T23:39:02.130Z,80.10
2023-04-11T23:41:30.509Z,80.10
2023-04-11T23:43:57.941Z,80.30
2023-04-11T23:46:25.397Z,80.30
2023-04-11T23:48:53.733Z,80.60
2023-04-11T23:51:21.606Z,80.90
2023-04-11T23:53:48.662Z,81.00
2023-04-11T23:56:16.034Z,81.10
2023-04-11T23:58:42.926Z,81.00
